Tiempo atmosférico en la estación meteorológica de Utiel, València/Valencia (761 m.)



Fecha
DESCASC
Temp. máxima en grados centígrados (hora)
DESCASC
Temp. mínima en grados centígrados (hora)
DESCASC
Temp. media en grados centígrados
DESCASC
Racha de viento máxima en m/sg (hora)
DESCASC
Velocidad máxima media en intervalos de 10 minutos(hora)
DESCASC
Precipitaciones diarias en mm
DESCASC
Precipitaciones de 00:00 a 06:00 en mm
DESCASC
Precipitaciones de 06:00 a 12:00 en mm
DESCASC
Precipitaciones de 12:00 a 18:00 en mm
DESCASC
Precipitaciones de 18:00 a 24:00 en mm
DESCASC
11-08-2020 30.2 (15:30) 17.8 (06:30) 24 13.33 (18:20) 8.61 (18:10) 0 0 0 0 0
10-08-2020 34.5 (15:30) 16.6 (07:30) 25.6 13.33 (00:20) 6.94 (00:20) 0 0 0 0 0
09-08-2020 38 (15:20) 17.6 (07:40) 27.8 11.67 (18:30) 7.22 (18:20) 0 0 0 0 0
08-08-2020 39.5 (17:10) 18.6 (07:30) 29.1 12.5 (18:10) 6.94 (18:10) 0 0 0 0 0
07-08-2020 37.6 (16:30) 16.7 (00:00) 27.1 9.17 (18:20) 5.56 (18:40) 0 0 0 0 0
06-08-2020 35.4 (16:20) 16.3 (07:40) 25.9 9.72 (19:00) 6.11 (19:20) 0 0 0 0 0
05-08-2020 34.7 (17:00) 18.1 (00:00) 26.4 10.56 (19:20) 6.39 (18:50) 0 0 0 0 0
04-08-2020 33.5 (16:40) 18.7 (03:10) 26.1 11.39 (16:50) 6.11 (18:10) 0 0 0 0 0
03-08-2020 33.4 (16:40) 19 (03:10) 26.2 8.89 (18:50) 5.56 (18:40) 0 0 0 0 0
02-08-2020 37.7 (16:40) 15 (07:30) 26.4 11.94 (18:20) 6.94 (16:10) 0 0 0 0 0
01-08-2020 38.4 (16:20) 18.3 (00:00) 28.4 12.78 (17:20) 8.06 (14:40) 0 0 0 0 0
31-07-2020 38.4 (16:20) 17.2 (06:50) 27.8 18.33 (00:20) 7.22 (00:10) 0.2 0.2 0 0 0
30-07-2020 35.2 (17:10) 15.9 (00:00) 25.6 17.22 (23:00) 6.39 (13:20) 0 0 0 0 0
29-07-2020 32.6 (16:30) 16.3 (00:00) 24.4 9.44 (15:50) 6.11 (16:40) 0 0 0 0 0
28-07-2020 35.7 (14:20) 17.9 (07:30) 26.8 9.72 (17:40) 6.11 (17:50) 0 0 0 0 0
27-07-2020 38.3 (16:10) 17.6 (00:00) 27.9 9.44 (18:50) 5.83 (18:20) 0 0 0 0 0
26-07-2020 37.9 (16:30) 16.7 (00:00) 27.3 10.28 (18:40) 6.94 (18:10) 0 0 0 0 0
25-07-2020 35.2 (17:50) 16.7 (07:30) 26 10.28 (18:30) 6.39 (18:20) 0 0 0 0 0
24-07-2020 35.1 (17:20) 16.4 (00:00) 25.7 10.56 (18:10) 6.11 (18:10) 0 0 0 0 0
23-07-2020 35.1 (18:10) 13.3 (00:00) 24.2 9.17 (18:50) 5.83 (19:40) 0 0 0 0 0
22-07-2020 28.5 (16:50) 16 (07:00) 22.3 10 (13:50) 6.11 (13:50) 1.2 0 0.6 0.6 0
21-07-2020 31.6 (16:10) 14.5 (00:00) 23.1 12.5 (17:30) 6.67 (17:10) 0 0 0 0 0
20-07-2020 33.5 (17:10) 19.8 (07:50) 26.6 11.11 (19:20) 6.11 (19:10) 0 0 0 0 0
19-07-2020 36.3 (17:30) 16.4 (00:00) 26.3 11.39 (18:50) 6.67 (18:50) 0 0 0 0 0
18-07-2020 32.6 (17:50) 15.6 (00:00) 24.1 8.89 (19:30) 5.56 (19:50) 0 0 0 0 0
17-07-2020 31 (16:00) 16.4 (00:00) 23.7 9.17 (17:10) 5.28 (17:10) 0.2 0 0 0 0.2
16-07-2020 31.6 (18:20) 15.6 (00:00) 23.6 8.89 (19:10) 5.83 (19:20) 0 0 0 0 0
15-07-2020 29.7 (18:50) 13 (06:10) 21.4 7.22 (20:40) 4.72 (20:20) 0.2 0.2 0 0 0

Gráficas

Temp. máximas Temp. mínimas Temp. medias Precipitaciones Rachas de viento máximas Velocidades máximas media en intervalos de 10 minutos

Datos horarios

Fecha y hora oficial Temperatura (ºC) Velocidad del viento (km/h) Dirección del viento Racha (km/h) Dirección de racha Precipitación (mm) Presión (hPa) Tendencia (hPa) Humedad (%)
2020-08-13 23:00:00 20.6 9 Norte 11 Norte 0 930.3 1.7 56
2020-08-13 22:00:00 22.2 7 Norte 13 Oeste 0 929.7 0.9 43
2020-08-13 21:00:00 26.7 11 Oeste 17 Oeste 0 928.9 0 29
2020-08-13 20:00:00 30.4 11 Oeste 21 Oeste 0 928.6 -0.6 19
2020-08-13 19:00:00 31.2 13 Oeste 25 Sudoeste 0 928.8 -0.8 18
2020-08-13 18:00:00 31.7 13 Sudoeste 23 Oeste 0 928.9 -1 16
2020-08-13 17:00:00 31.7 14 Oeste 24 Oeste 0 929.2 -- 15
2020-08-13 16:00:00 31.4 13 Oeste 24 Oeste 0 929.6 -- 14
2020-08-13 15:00:00 31 12 Sudoeste 24 Sudoeste 0 929.9 -- 18
2020-08-13 14:00:00 29.8 9 Oeste 28 Oeste 0 930.3 -- 23
2020-08-13 13:00:00 28.9 8 Oeste 20 Sudoeste 0 930.7 -- 26
2020-08-13 12:00:00 27.4 6 Noroeste 14 Noroeste 0 930.9 -- 29
2020-08-13 11:00:00 25.9 3 Sudoeste 8 Sur 0 930.8 -- 43
2020-08-13 10:00:00 22.4 3 Sudoeste 6 Sudoeste 0 930.6 -- 60
2020-08-13 09:00:00 18.2 4 Oeste 8 Noroeste 0 930.3 -- 81
2020-08-13 08:00:00 14.9 6 Noroeste 10 Noroeste 0 929.9 -- 91
2020-08-13 07:00:00 14.7 0 Calma 12 Noroeste 0 929.7 -- 90
2020-08-13 06:00:00 15.7 5 Noroeste 9 Noroeste 0 929.6 -- 89
2020-08-13 05:00:00 15.9 4 Norte 12 Noroeste 0 929.5 -- 90
2020-08-13 04:00:00 16.5 8 Noroeste 9 Noroeste 0 929.5 -- 89
2020-08-13 03:00:00 17.4 6 Noroeste 10 Noroeste 0 929.8 -- 87
2020-08-13 02:00:00 18.1 6 Noroeste 9 Noroeste 0 930.1 -- 86
2020-08-13 01:00:00 18.5 7 Noroeste 10 Norte 0 930 -- 86
2020-08-13 00:00:00 19.2 5 Norte 8 Noroeste 0 929.8 -- 83
2020-08-12 23:00:00 20.8 5 Norte 10 Noroeste 0 929.6 -- 74
2020-08-12 22:00:00 22.5 6 Sudeste 15 Sudeste 0 928.8 -- 65
2020-08-12 21:00:00 24.8 10 Sudeste 21 Sudeste 0 928.2 -- 57
2020-08-12 20:00:00 28.5 6 Sur 17 Sudeste 0 927.9 -- 36
2020-08-12 19:00:00 29.9 9 Oeste 20 Oeste 0 928 -- 25
2020-08-12 18:00:00 30.2 11 Oeste 23 Oeste 0 928 -- 28
2020-08-12 17:00:00 29.6 14 Oeste 29 Oeste 0 928.3 -- 27
2020-08-12 16:00:00 29.1 14 Oeste 24 Noroeste 0 928.9 -- 33
2020-08-12 15:00:00 27.9 10 Oeste 21 Oeste 0 929.6 -- 39
2020-08-12 14:00:00 27.4 4 Oeste 15 Sudoeste 0 930 -- 45
2020-08-12 13:00:00 26.5 6 Sudoeste 14 Sur 0 930.3 -- 45
2020-08-12 12:00:00 25.1 4 Sudoeste 10 Sudoeste 0 930.4 -- 51
2020-08-12 11:00:00 23.3 2 Sur 8 Noroeste 0 930.4 -- 56
2020-08-12 10:00:00 19.9 6 Noroeste 16 Noroeste 0.2 930.2 -- 72
2020-08-12 09:00:00 16.3 11 Noroeste 16 Noroeste 0 929.8 -- 84
2020-08-12 08:00:00 14 9 Noroeste 13 Noroeste 0 929.6 -- 91
2020-08-12 07:00:00 13.6 9 Noroeste 11 Noroeste 0 929.2 -- 92
2020-08-12 06:00:00 14.1 9 Noroeste 13 Noroeste 0 929.1 -- 92
2020-08-12 05:00:00 14.8 5 Norte 11 Noroeste 0 928.9 -- 90
2020-08-12 04:00:00 15.4 5 Noroeste 13 Oeste 0 929 -- 90
2020-08-12 03:00:00 15.7 6 Norte 34 Noroeste 0.8 929.9 -- 86
2020-08-12 02:00:00 15.5 20 Noroeste 41 Norte 0.6 930.3 -- 86
2020-08-12 01:00:00 14.5 24 Norte 76 Oeste 9.2 930.4 -- 90
2020-08-12 00:00:00 19.9 7 Sur 11 Sur 0 929.5 -- 67
2020-08-11 23:00:00 21.3 9 Nordeste 15 Este 0 929.2 -- 64
2020-08-11 22:00:00 22.2 5 Sur 30 Sudeste 0 929.4 -- 67
2020-08-11 21:00:00 22.8 17 Sudeste 36 Sudeste 0 927.5 -- 64
2020-08-11 20:00:00 23.8 20 Sudeste 39 Este 0 927.1 -- 57
2020-08-11 19:00:00 25.9 23 Este 48 Este 0 927.4 -- 38
2020-08-11 18:00:00 27.4 30 Este 48 Este 0 927.5 -- 36
2020-08-11 17:00:00 29.2 22 Este 42 Sudeste 0 927.8 -- 32
2020-08-11 16:00:00 28.8 23 Sudeste 40 Sudeste 0 928.4 -- 31
2020-08-11 15:00:00 29.7 18 Sudeste 35 Sudeste 0 929 -- 31
2020-08-11 14:00:00 27.6 17 Sudeste 39 Sudeste 0 929.4 -- 35
2020-08-11 13:00:00 28.9 19 Sudeste 43 Sudeste 0 929.4 -- 27
2020-08-11 12:00:00 23.9 12 Sudeste 19 Sudeste 0 929.6 -- 43
2020-08-11 11:00:00 22.8 6 Noroeste 11 Norte 0 929.7 -- 54
2020-08-11 10:00:00 21.3 5 Noroeste 9 Noroeste 0 929.8 -- 61
2020-08-11 09:00:00 19.4 5 Norte 12 Norte 0 929.8 -- 66
2020-08-11 08:00:00 18.7 7 Noroeste 12 Noroeste 0 929.6 -- 72
2020-08-11 07:00:00 18.2 9 Noroeste 11 Noroeste 0 929.3 -- 70
2020-08-11 06:00:00 18.1 7 Norte 12 Noroeste 0 929.5 -- 68
2020-08-11 05:00:00 18.5 4 Oeste 10 Noroeste 0 930.2 -- 69
2020-08-11 04:00:00 19 5 Oeste 8 Norte 0 930.4 -- 67
2020-08-11 03:00:00 19.1 4 Norte 9 Oeste 0 930.3 -- 65
2020-08-11 02:00:00 19.2 5 Norte 10 Noroeste 0 930.3 -- 65
2020-08-11 01:00:00 20.3 5 Norte 13 Este 0 930 -- 63
2020-08-11 00:00:00 22.8 8 Este 17 Este 0 929.7 -- 33
2020-08-10 23:00:00 23.1 9 Sudeste 15 Norte 0 929.6 -- 41
2020-08-10 22:00:00 24 9 Nordeste 31 Sudeste 0 928.7 -- 47
2020-08-10 21:00:00 25.7 18 Sudeste 27 Sur 0 930 -- 48
2020-08-10 20:00:00 28.2 17 Sudeste 30 Sudeste 0 928.4 -- 37
2020-08-10 19:00:00 31.4 17 Este 27 Sudeste 0 928.3 -- 30
2020-08-10 18:00:00 33.3 10 Noroeste 32 Noroeste 0 928.1 -- 18
2020-08-10 17:00:00 33.2 19 Noroeste 34 Noroeste 0 928.5 -- 19
2020-08-10 16:00:00 33.2 12 Oeste 27 Sudoeste 0 929.3 -- 16
2020-08-10 15:00:00 34.2 12 Sudoeste 26 Sudoeste 0 929.2 -- 14
2020-08-10 14:00:00 32.6 4 Sur 12 Sur 0 929.8 -- 16
2020-08-10 13:00:00 31 4 Oeste 17 Sur 0 929.5 -- 18
2020-08-10 12:00:00 29.6 6 Este 15 Nordeste 0 929.1 -- 22
2020-08-10 11:00:00 28.8 5 Este 13 Sudeste 0 929.3 -- 22
2020-08-10 10:00:00 26.7 6 Sur 12 Sudoeste 0 929 -- 29
2020-08-10 09:00:00 22.8 3 Nordeste 15 Noroeste 0 929 -- 36
2020-08-10 08:00:00 17.4 9 Noroeste 11 Noroeste 0 929 -- 50
2020-08-10 07:00:00 17.3 7 Noroeste 10 Noroeste 0 929 -- 50
2020-08-10 06:00:00 18 3 Noroeste 15 Noroeste 0 929.1 -- 50
2020-08-10 05:00:00 18.9 11 Noroeste 14 Noroeste 0 929.3 -- 46
2020-08-10 04:00:00 19.9 10 Noroeste 20 Noroeste 0 929.6 -- 44
2020-08-10 03:00:00 19.7 6 Nordeste 10 Oeste 0 929.9 -- 47
2020-08-10 02:00:00 21.3 8 Noroeste 14 Noroeste 0 930.6 -- 41
2020-08-10 01:00:00 23.3 6 Sudoeste 48 Sudeste 0 930.3 -- 31
2020-08-10 00:00:00 24 9 Sur 21 Sudeste 0 931.7 -- 36
2020-08-09 23:00:00 24.7 8 Oeste 22 Nordeste 0 931.6 -- 33
2020-08-09 22:00:00 26.2 10 Este 22 Este 0 930.7 -- 27
2020-08-09 21:00:00 28.4 11 Este 30 Este 0 929.6 -- 32
2020-08-09 20:00:00 31.4 18 Este 35 Este 0 928.8 -- 29
2020-08-09 19:00:00 33.8 21 Sudeste 42 Sudeste 0 928.5 -- 22
2020-08-09 18:00:00 35.3 23 Sudeste 38 Sudeste 0 928.6 -- 21
2020-08-09 17:00:00 36.4 21 Sudeste 36 Sudeste 0 929.3 -- 19
2020-08-09 16:00:00 37.3 16 Sudeste 31 Sudeste 0 929.9 -- 14
2020-08-09 15:00:00 37.4 7 Sudeste 28 Sudeste 0 930.6 -- 12
2020-08-09 14:00:00 36.9 11 Sudeste 22 Sudeste 0 931.3 -- 12
2020-08-09 13:00:00 35.5 11 Sudeste 23 Sudeste 0 931.8 -- 11
2020-08-09 12:00:00 33.7 13 Sudeste 21 Sur 0 932.1 -- 20
2020-08-09 11:00:00 31.7 4 Sur 7 Sur 0 932.2 -- 24
2020-08-09 10:00:00 27.4 5 Norte 11 Noroeste 0 932.5 -- 41
2020-08-09 09:00:00 23.6 7 Norte 12 Noroeste 0 932.6 -- 50
2020-08-09 08:00:00 18.3 3 Norte 13 Norte 0 932.5 -- 67
2020-08-09 07:00:00 18.7 7 Noroeste 12 Noroeste 0 932.4 -- 62
2020-08-09 06:00:00 18.8 9 Norte 13 Noroeste 0 932 -- 66
2020-08-09 05:00:00 19.9 8 Noroeste 14 Noroeste 0 932.1 -- 61
2020-08-09 04:00:00 20.3 9 Noroeste 12 Noroeste 0 932.2 -- 64
2020-08-09 03:00:00 22.8 6 Noroeste 16 Norte 0 932.6 -- 51
2020-08-09 02:00:00 23.3 10 Noroeste 24 Norte 0 933 -- 52
2020-08-09 01:00:00 24.7 7 Norte 27 Norte 0 933.7 -- 44
2020-08-09 00:00:00 26.2 10 Sudeste 23 Sudoeste 0 933.2 -- 36
2020-08-08 23:00:00 27 14 Norte 31 Norte 0 932.9 -- 26
2020-08-08 22:00:00 25.7 16 Noroeste 29 Noroeste 0 934.4 -- 48
2020-08-08 21:00:00 28 4 Oeste 12 Noroeste 0 933.3 -- 40
2020-08-08 20:00:00 29.6 8 Sudeste 35 Nordeste 0 933.1 -- 36
2020-08-08 19:00:00 29.5 17 Nordeste 45 Nordeste 0 933.1 -- 33
2020-08-08 18:00:00 35.2 21 Este 38 Este 0 932.2 -- 24
2020-08-08 17:00:00 39.3 11 Sudoeste 29 Sudoeste 0 932.1 -- 12
2020-08-08 16:00:00 39 13 Sur 27 Sur 0 932.5 -- 13
2020-08-08 15:00:00 38.5 10 Sudoeste 21 Sudoeste 0 933.4 -- 13
2020-08-08 14:00:00 37.3 11 Sur 19 Sudeste 0 933.9 -- 13
2020-08-08 13:00:00 35.7 4 Nordeste 13 Oeste 0 934.4 -- 15
2020-08-08 12:00:00 33.8 5 Este 13 Sudeste 0 934.9 -- 16
2020-08-08 11:00:00 31.8 3 Sur 8 Sudeste 0 934.9 -- 21
2020-08-08 10:00:00 27.6 2 Noroeste 6 Noroeste 0 935.1 -- 34
2020-08-08 09:00:00 23 5 Noroeste 9 Noroeste 0 935.1 -- 49
2020-08-08 08:00:00 19.4 7 Noroeste 17 Norte 0 934.9 -- 56
2020-08-08 07:00:00 19.2 2 Oeste 13 Noroeste 0 934.4 -- 55
2020-08-08 06:00:00 19.7 10 Noroeste 13 Noroeste 0 934.5 -- 54
2020-08-08 05:00:00 19.8 8 Noroeste 13 Norte 0 934.6 -- 52
2020-08-08 04:00:00 19.4 8 Norte 13 Norte 0 934.9 -- 55
2020-08-08 03:00:00 20.1 9 Norte 12 Norte 0 934.8 -- 53
2020-08-08 02:00:00 21.2 4 Noroeste 14 Noroeste 0 934.9 -- 49
2020-08-08 01:00:00 21.7 10 Noroeste 15 Noroeste 0 935 -- 47
2020-08-08 00:00:00 23.5 8 Oeste 11 Oeste 0 935.1 -- 42
2020-08-07 23:00:00 25.4 6 Oeste 10 Este 0 934.7 -- 36
2020-08-07 22:00:00 27.3 7 Sudeste 17 Este 0 934 -- 29
2020-08-07 21:00:00 28.5 9 Este 31 Este 0 933.3 -- 33
2020-08-07 20:00:00 32.5 16 Sudeste 32 Sudeste 0 932.4 -- 30
2020-08-07 19:00:00 34.4 18 Sudeste 33 Sudeste 0 931.8 -- 27
2020-08-07 18:00:00 36.9 17 Sudeste 26 Este 0 931.7 -- 21
2020-08-07 17:00:00 37.5 10 Sudeste 21 Sudeste 0 932 -- 15
2020-08-07 16:00:00 37.1 13 Sudeste 21 Sudeste 0 932.7 -- 16
2020-08-07 15:00:00 36.2 8 Sur 19 Sur 0 933.1 -- 17
2020-08-07 14:00:00 35 8 Sur 15 Sur 0 933.4 -- 18
2020-08-07 13:00:00 33.9 6 Sudeste 14 Sudeste 0 933.8 -- 21
2020-08-07 12:00:00 31.9 4 Sudeste 10 Sur 0 934.1 -- 25
2020-08-07 11:00:00 29.8 2 Sudoeste 6 Norte 0 934.1 -- 27
2020-08-07 10:00:00 25.7 3 Noroeste 10 Norte 0 934 -- 31
2020-08-07 09:00:00 21.4 8 Norte 12 Norte 0 933.8 -- 46
2020-08-07 08:00:00 17 7 Norte 10 Noroeste 0 933.7 -- 60
2020-08-07 07:00:00 16.9 7 Norte 11 Noroeste 0 933.5 -- 62
2020-08-07 06:00:00 17.6 5 Noroeste 13 Noroeste 0 933.2 -- 61
2020-08-07 05:00:00 17.7 8 Norte 12 Noroeste 0 933.1 -- 65
2020-08-07 04:00:00 17.9 8 Noroeste 12 Norte 0 933.3 -- 68
2020-08-07 03:00:00 18.4 7 Noroeste 14 Noroeste 0 933.6 -- 68
2020-08-07 02:00:00 19.1 9 Noroeste 14 Noroeste 0 933.5 -- 64
2020-08-07 01:00:00 19.7 10 Norte 13 Noroeste 0 933.4 -- 59
2020-08-07 00:00:00 20.9 5 Noroeste 10 Oeste 0 933.4 -- 58
2020-08-06 23:00:00 22.6 4 Sudeste 17 Este 0 933.1 -- 51
2020-08-06 22:00:00 24.5 12 Este 16 Este 0 932.2 -- 44
2020-08-06 21:00:00 26.7 10 Sudeste 31 Sudeste 0 931.4 -- 48
2020-08-06 20:00:00 29.1 20 Sudeste 33 Este 0 930.5 -- 44
2020-08-06 19:00:00 31.8 21 Sudeste 35 Sudeste 0 930.1 -- 39
2020-08-06 18:00:00 34.1 15 Sudeste 28 Sudeste 0 930 -- 28
2020-08-06 17:00:00 35.1 10 Sur 24 Sur 0 930.2 -- 24
2020-08-06 16:00:00 34.7 8 Sur 19 Sudeste 0 930.6 -- 23
2020-08-06 15:00:00 33.4 5 Este 18 Sudeste 0 931.1 -- 26
2020-08-06 14:00:00 31.5 9 Sudeste 18 Sudeste 0 931.7 -- 31
2020-08-06 13:00:00 30.1 7 Sudeste 17 Sudeste 0 932.1 -- 37
2020-08-06 12:00:00 27.6 9 Sudeste 16 Sur 0 932.3 -- 45
2020-08-06 11:00:00 25.7 5 Sur 10 Sur 0 932.4 -- 51
2020-08-06 10:00:00 23.1 3 Sudeste 8 Sudeste 0 932.4 -- 54
2020-08-06 09:00:00 20.6 3 Sudeste 6 Noroeste 0 932.1 -- 70
2020-08-06 08:00:00 16.5 2 Noroeste 7 Sudoeste 0 931.5 -- 82
2020-08-06 07:00:00 16.8 3 Sur 6 Norte 0 931.3 -- 83
2020-08-06 06:00:00 17 6 Norte 10 Noroeste 0 930.7 -- 72
2020-08-06 05:00:00 18.3 6 Noroeste 13 Noroeste 0 930.6 -- 83
2020-08-06 04:00:00 18.6 7 Noroeste 13 Noroeste 0 930.5 -- 79
2020-08-06 03:00:00 19 8 Noroeste 12 Noroeste 0 930.8 -- 80
2020-08-06 02:00:00 19.2 7 Noroeste 10 Noroeste 0 930.6 -- 79
2020-08-06 01:00:00 20.6 3 Nordeste 13 Este 0 930.8 -- 68
2020-08-06 00:00:00 21.4 7 Sudeste 21 Este 0 930.5 -- 66
2020-08-05 23:00:00 22.2 10 Este 18 Este 0 930.3 -- 67
2020-08-05 22:00:00 23.2 11 Este 22 Este 0 929.4 -- 67
2020-08-05 21:00:00 25.7 11 Sudeste 30 Sudeste 0 928.3 -- 60
2020-08-05 20:00:00 28.2 21 Sudeste 38 Sudeste 0 927.5 -- 52
2020-08-05 19:00:00 31.3 21 Sudeste 36 Sudeste 0 926.8 -- 40
2020-08-05 18:00:00 34.1 15 Sudeste 26 Sudeste 0 926.6 -- 20
2020-08-05 17:00:00 34.6 8 Sudoeste 18 Sudoeste 0 927.1 -- 20
2020-08-05 16:00:00 33.4 9 Sur 20 Sudoeste 0 927.5 -- 24
2020-08-05 15:00:00 32.4 6 Sur 17 Sur 0 928 -- 25
2020-08-05 14:00:00 30.3 6 Este 19 Sudeste 0 928.7 -- 38
2020-08-05 13:00:00 28.7 6 Sur 17 Sur 0 929.2 -- 42
2020-08-05 12:00:00 27.1 6 Sur 19 Sudeste 0 929.5 -- 52
2020-08-05 11:00:00 25.5 6 Sur 14 Sudeste 0 929.7 -- 57
2020-08-05 10:00:00 23.7 6 Sudeste 11 Sudeste 0 929.7 -- 63
2020-08-05 09:00:00 21.6 0 Calma 4 Norte 0 929.7 -- 74
2020-08-05 08:00:00 18.2 2 Norte 7 Norte 0 929.4 -- 87
2020-08-05 07:00:00 18.2 6 Norte 12 Noroeste 0 929 -- 87
2020-08-05 06:00:00 19.5 8 Noroeste 11 Noroeste 0 928.8 -- 83
2020-08-05 05:00:00 21.1 5 Norte 7 Norte 0 929 -- 78
2020-08-05 04:00:00 21 4 Noroeste 6 Noroeste 0 929.1 -- 79
2020-08-05 03:00:00 21.6 4 Nordeste 12 Nordeste 0 929.5 -- 75
2020-08-05 02:00:00 21.7 7 Nordeste 13 Sudeste 0 929.9 -- 75
2020-08-05 01:00:00 22.1 6 Este 13 Este 0 929.9 -- 75
2020-08-05 00:00:00 22.3 11 Este 17 Este 0 929.7 -- 72
2020-08-04 23:00:00 22.4 11 Este 18 Este 0 929.8 -- 73
2020-08-04 22:00:00 22.4 11 Este 22 Este 0 929.2 -- 71
2020-08-04 21:00:00 24.1 14 Sudeste 26 Sudeste 0 928.5 -- 64
2020-08-04 20:00:00 26.5 17 Sudeste 35 Sudeste 0 927.8 -- 54
2020-08-04 19:00:00 28.9 17 Sudeste 37 Sudeste 0 927.3 -- 44
2020-08-04 18:00:00 29.6 20 Sudeste 34 Sudeste 0 927.3 -- 38
2020-08-04 17:00:00 31.8 14 Sudeste 41 Sudeste 0 927.2 -- 33
2020-08-04 16:00:00 31.8 8 Nordeste 31 Oeste 0 927.7 -- 23
2020-08-04 15:00:00 31.4 10 Sudoeste 19 Oeste 0 928.4 -- 26
2020-08-04 14:00:00 29.9 8 Sur 20 Sudeste 0 929.2 -- 32
2020-08-04 13:00:00 27.8 4 Noroeste 14 Sudeste 0 929.5 -- 41
2020-08-04 12:00:00 27.2 6 Este 13 Sudoeste 0 929.9 -- 45
2020-08-04 11:00:00 25.9 5 Sudeste 11 Sudeste 0 929.9 -- 50
2020-08-04 10:00:00 24.8 2 Este 12 Noroeste 0 929.9 -- 50
2020-08-04 09:00:00 21.5 8 Norte 15 Noroeste 0 930.1 -- 47
2020-08-04 08:00:00 19.7 5 Noroeste 13 Noroeste 0 930.1 -- 53
2020-08-04 07:00:00 19.4 8 Noroeste 14 Noroeste 0 929.7 -- 57
2020-08-04 06:00:00 19.4 10 Noroeste 15 Noroeste 0 929.4 -- 61
2020-08-04 05:00:00 20.1 9 Norte 12 Norte 0 929.4 -- 72
2020-08-04 04:00:00 19.5 5 Nordeste 9 Norte 0 929.8 -- 79
2020-08-04 03:00:00 18.8 2 Nordeste 10 Noroeste 0 930 -- 83
2020-08-04 02:00:00 19.2 6 Noroeste 10 Noroeste 0 929.8 -- 81
2020-08-04 01:00:00 20.5 5 Noroeste 7 Noroeste 0 929.7 -- 76
2020-08-04 00:00:00 21.8 5 Este 18 Sudeste 0 929.5 -- 71
2020-08-03 23:00:00 21.7 9 Sudeste 19 Sudeste 0 929 -- 72
2020-08-03 22:00:00 22.3 14 Sudeste 23 Sudeste 0 928.2 -- 70
2020-08-03 21:00:00 25.1 9 Este 23 Sudeste 0 927 -- 60
2020-08-03 20:00:00 27.6 16 Sudeste 30 Sudeste 0 926.4 -- 52
2020-08-03 19:00:00 28.8 19 Sudeste 32 Sudeste 0 926.1 -- 46
2020-08-03 18:00:00 29.7 17 Sudeste 30 Sudeste 0 926.2 -- 35
2020-08-03 17:00:00 31.2 18 Sudeste 31 Sudeste 0 926.2 -- 33
2020-08-03 16:00:00 32.3 6 Sudeste 23 Noroeste 0 926.9 -- 23
2020-08-03 15:00:00 31.5 5 Noroeste 18 Norte 0 927.7 -- 25
2020-08-03 14:00:00 30.4 6 Sudoeste 15 Sudoeste 0 928.3 -- 31
2020-08-03 13:00:00 28.7 4 Noroeste 16 Nordeste 0 928.9 -- 38
2020-08-03 12:00:00 27 4 Sudoeste 12 Este 0 929.2 -- 47
2020-08-03 11:00:00 24.9 4 Este 15 Norte 0 929.3 -- 54
2020-08-03 10:00:00 21.4 8 Nordeste 18 Norte 0 929.2 -- 58
2020-08-03 09:00:00 19.9 8 Noroeste 13 Noroeste 0 928.4 -- 63
2020-08-03 08:00:00 19.5 6 Noroeste 18 Noroeste 0 928.4 -- 64
2020-08-03 07:00:00 19.9 4 Oeste 23 Norte 0 928.2 -- 63
2020-08-03 06:00:00 20.4 9 Noroeste 19 Norte 0 928.7 -- 64
2020-08-03 05:00:00 19.9 10 Norte 14 Norte 0 928.2 -- 84
2020-08-03 04:00:00 19.2 7 Noroeste 8 Noroeste 0 928.4 -- 85
2020-08-03 03:00:00 19.1 2 Sudoeste 9 Norte 0 928.7 -- 83
2020-08-03 02:00:00 19.5 6 Noroeste 10 Norte 0 928.8 -- 83
2020-08-03 01:00:00 20.7 2 Sudoeste 9 Noroeste 0 929.1 -- 77
2020-08-03 00:00:00 22.4 3 Norte 8 Nordeste 0 929.2 -- 70
2020-08-02 23:00:00 23.2 5 Nordeste 14 Este 0 929 -- 64
2020-08-02 22:00:00 24.1 7 Este 24 Sudeste 0 928.5 -- 69
2020-08-02 21:00:00 26 15 Sudeste 33 Sudeste 0 928.1 -- 60
2020-08-02 20:00:00 29.1 24 Sudeste 39 Sudeste 0 927.3 -- 49
2020-08-02 19:00:00 36.2 23 Oeste 43 Oeste 0 927.2 -- 9
2020-08-02 18:00:00 37.4 21 Oeste 37 Oeste 0 927.6 -- 9
2020-08-02 17:00:00 37.4 21 Oeste 42 Noroeste 0 928.1 -- 10
2020-08-02 16:00:00 37.1 22 Oeste 38 Oeste 0 928.5 -- 9
2020-08-02 15:00:00 36.1 21 Oeste 39 Oeste 0 929.1 -- 9
2020-08-02 14:00:00 34.5 14 Sur 26 Sudoeste 0 930.2 -- 15
2020-08-02 13:00:00 32.9 6 Sudoeste 13 Sur 0 930.6 -- 19
2020-08-02 12:00:00 30.5 5 Sudeste 13 Este 0 931.3 -- 19
2020-08-02 11:00:00 28.2 6 Sudeste 13 Sudeste 0 931.3 -- 23
2020-08-02 10:00:00 25.6 3 Este 9 Sudeste 0 931.5 -- 34
2020-08-02 09:00:00 20.6 3 Noroeste 9 Norte 0 931.4 -- 57
2020-08-02 08:00:00 15.4 8 Noroeste 10 Noroeste 0 931.3 -- 71
2020-08-02 07:00:00 15.8 6 Noroeste 11 Noroeste 0 930.7 -- 66
2020-08-02 06:00:00 15.4 5 Noroeste 9 Noroeste 0 930.4 -- 62
2020-08-02 05:00:00 16.4 4 Oeste 12 Noroeste 0 930.2 -- 62
2020-08-02 04:00:00 17.4 5 Noroeste 6 Noroeste 0 930.3 -- 61
2020-08-02 03:00:00 17.9 3 Noroeste 6 Norte 0 930.6 -- 54
2020-08-02 02:00:00 18.6 3 Noroeste 12 Noroeste 0 930.9 -- 58
2020-08-02 01:00:00 20.4 6 Norte 13 Noroeste 0 931 -- 30
2020-08-02 00:00:00 21.6 9 Noroeste 14 Norte 0 930.8 -- 27
2020-08-01 23:00:00 24.2 10 Noroeste 15 Norte 0 930.5 -- 24
2020-08-01 22:00:00 28.1 11 Oeste 14 Oeste 0 930 -- 17
2020-08-01 21:00:00 34.1 9 Oeste 25 Oeste 0 929.7 -- 11
2020-08-01 20:00:00 36.7 16 Oeste 34 Oeste 0 929.5 -- 7
2020-08-01 19:00:00 37.7 24 Oeste 37 Oeste 0 929.6 -- 7
2020-08-01 18:00:00 37.9 22 Oeste 46 Oeste 0 930.1 -- 8
2020-08-01 17:00:00 38.4 23 Oeste 45 Oeste 0 930.5 -- 7
2020-08-01 16:00:00 37.9 26 Oeste 43 Oeste 0 931 -- 8
2020-08-01 15:00:00 37.4 25 Oeste 42 Oeste 0 931.5 -- 10
2020-08-01 14:00:00 36.3 23 Oeste 39 Oeste 0 931.8 -- 12
2020-08-01 13:00:00 34.9 15 Oeste 35 Sudoeste 0 932.2 -- 16
2020-08-01 12:00:00 34.4 12 Oeste 24 Oeste 0 932.4 -- 17
2020-08-01 11:00:00 31.7 5 Sur 14 Sur 0 932.3 -- 25
2020-08-01 10:00:00 28.9 4 Norte 10 Sudoeste 0 932.3 -- 33
2020-08-01 09:00:00 22.2 5 Sudoeste 8 Sudoeste 0 932.4 -- 60
2020-08-01 08:00:00 18.4 5 Noroeste 9 Norte 0 932.2 -- 75
2020-08-01 07:00:00 18.8 5 Oeste 9 Noroeste 0 931.9 -- 71
2020-08-01 06:00:00 19.3 6 Noroeste 13 Noroeste 0 931.4 -- 70
2020-08-01 05:00:00 19.4 6 Noroeste 11 Noroeste 0 931.5 -- 70
2020-08-01 04:00:00 20 10 Noroeste 12 Noroeste 0 931.6 -- 69
2020-08-01 03:00:00 21.7 6 Norte 12 Noroeste 0 931.8 -- 65
2020-08-01 02:00:00 22.4 10 Norte 16 Norte 0 932 -- 61
2020-08-01 01:00:00 22.8 11 Noroeste 15 Noroeste 0 932.4 -- 65
2020-08-01 00:00:00 24 12 Noroeste 16 Noroeste 0 932.2 -- 61
2020-07-31 23:00:00 25.8 10 Noroeste 24 Sudeste 0 932.1 -- 54
2020-07-31 22:00:00 29 13 Sudeste 20 Sudeste 0 931 -- 41
2020-07-31 21:00:00 34 9 Oeste 23 Sudoeste 0 930.3 -- 13
2020-07-31 20:00:00 37.3 15 Oeste 27 Oeste 0 930 -- 9
2020-07-31 19:00:00 38 15 Sudoeste 32 Sudoeste 0 930 -- 9
2020-07-31 18:00:00 38.2 13 Sudoeste 31 Oeste 0 930.3 -- 12
2020-07-31 17:00:00 38 12 Oeste 27 Sudoeste 0 930.7 -- 13
2020-07-31 16:00:00 37.8 9 Oeste 28 Oeste 0 930.9 -- 14
2020-07-31 15:00:00 37.2 7 Sudoeste 18 Noroeste 0 931 -- 16
2020-07-31 14:00:00 36.3 8 Noroeste 17 Oeste 0 931.3 -- 20
2020-07-31 13:00:00 35 4 Sudeste 13 Sur 0 931.7 -- 20
2020-07-31 12:00:00 33.4 4 Sudoeste 10 Sur 0 931.8 -- 22
2020-07-31 11:00:00 30.6 4 Sur 13 Noroeste 0 931.8 -- 25
2020-07-31 10:00:00 26.3 11 Noroeste 18 Noroeste 0 931.7 -- 45
2020-07-31 09:00:00 22.7 12 Noroeste 19 Noroeste 0 931.6 -- 55
2020-07-31 08:00:00 18.9 11 Noroeste 16 Noroeste 0 931.4 -- 66
2020-07-31 07:00:00 17.3 8 Noroeste 13 Noroeste 0 931.3 -- 76
2020-07-31 06:00:00 17.7 6 Norte 12 Noroeste 0 931.4 -- 76
2020-07-31 05:00:00 19.3 6 Norte 9 Noroeste 0 931.3 -- 68
2020-07-31 04:00:00 21.3 8 Oeste 21 Sudoeste 0 931.4 -- 58
2020-07-31 03:00:00 24.6 6 Sudeste 19 Norte 0 930.7 -- 38
2020-07-31 02:00:00 23.7 15 Noroeste 32 Norte 0 931.9 -- 49
2020-07-31 01:00:00 22.2 10 Noroeste 66 Oeste 0.2 933.3 -- 65
2020-07-31 00:00:00 26.1 23 Sur 41 Sur 0 930.5 -- 34
2020-07-30 23:00:00 28.3 22 Oeste 62 Oeste 0 931.9 -- 25
2020-07-30 22:00:00 27 9 Este 28 Nordeste 0 931.2 -- 33
2020-07-30 21:00:00 27 19 Norte 35 Norte 0 931.6 -- 37
2020-07-30 20:00:00 29.8 15 Sudeste 29 Este 0 930.9 -- 30
2020-07-30 19:00:00 32.5 18 Sudeste 33 Sudeste 0 930 -- 26
2020-07-30 18:00:00 34.6 19 Sudeste 36 Sudeste 0 929.8 -- 22
2020-07-30 17:00:00 35.1 19 Sudeste 33 Sudeste 0 930.2 -- 21
2020-07-30 16:00:00 34.5 18 Sudeste 30 Sudeste 0 930.6 -- 22
2020-07-30 15:00:00 34.4 18 Sudeste 31 Sudeste 0 931.2 -- 21
2020-07-30 14:00:00 33.7 21 Sudeste 34 Sur 0 931.6 -- 23
2020-07-30 13:00:00 33.8 16 Sudeste 28 Sur 0 931.8 -- 21
2020-07-30 12:00:00 31.1 13 Sudeste 25 Sudeste 0 932.3 -- 25
2020-07-30 11:00:00 29 8 Sur 24 Sudeste 0 932.4 -- 29
2020-07-30 10:00:00 26.3 5 Norte 9 Norte 0 931.9 -- 37
2020-07-30 09:00:00 22.4 5 Norte 12 Noroeste 0 931.6 -- 54
2020-07-30 08:00:00 18.1 9 Noroeste 14 Norte 0 931.2 -- 65
2020-07-30 07:00:00 17.4 9 Noroeste 17 Noroeste 0 931.1 -- 65
2020-07-30 06:00:00 16.6 9 Noroeste 13 Noroeste 0 930.9 -- 79
2020-07-30 05:00:00 16.4 8 Norte 10 Nordeste 0 931.6 -- 71
2020-07-30 04:00:00 17.5 4 Noroeste 8 Noroeste 0 931.9 -- 78
2020-07-30 03:00:00 18.6 6 Norte 11 Noroeste 0 931.6 -- 68
2020-07-30 02:00:00 19.9 7 Oeste 12 Noroeste 0 931.5 -- 70
2020-07-30 01:00:00 19.9 8 Noroeste 11 Noroeste 0 931.5 -- 56
2020-07-30 00:00:00 21.5 8 Oeste 11 Oeste 0 931.9 -- 55
2020-07-29 23:00:00 23.2 5 Sudeste 11 Sudeste 0 931.7 -- 51
2020-07-29 22:00:00 25.1 8 Sudeste 19 Este 0 931.4 -- 44
2020-07-29 21:00:00 27.3 14 Este 24 Este 0 930.8 -- 34
2020-07-29 20:00:00 29.3 15 Sudeste 29 Sudeste 0 930 -- 33
2020-07-29 19:00:00 30.8 16 Sudeste 34 Sudeste 0 930.2 -- 33
2020-07-29 18:00:00 31.7 22 Sudeste 32 Sudeste 0 930.2 -- 30
2020-07-29 17:00:00 31.9 21 Sudeste 34 Sudeste 0 930.8 -- 29
2020-07-29 16:00:00 32.2 19 Sudeste 34 Sudeste 0 931.1 -- 30
2020-07-29 15:00:00 31.9 20 Sudeste 33 Sudeste 0 931.4 -- 32
2020-07-29 14:00:00 30 16 Este 33 Sudeste 0 931.7 -- 40
2020-07-29 13:00:00 29.2 18 Sudeste 33 Sudeste 0 932 -- 44
2020-07-29 12:00:00 28.5 18 Sudeste 31 Sudeste 0 932.1 -- 42
2020-07-29 11:00:00 28.1 13 Sudeste 23 Sudeste 0 931.9 -- 32
2020-07-29 10:00:00 25.2 6 Sudeste 17 Este 0 931.8 -- 49
2020-07-29 09:00:00 22.4 8 Sudeste 14 Sudeste 0 931.4 -- 56
2020-07-29 08:00:00 17.6 4 Sudoeste 9 Norte 0 930.8 -- 64
2020-07-29 07:00:00 16.8 4 Nordeste 13 Noroeste 0 930.5 -- 67
2020-07-29 06:00:00 17.3 4 Noroeste 8 Noroeste 0 930.2 -- 67
2020-07-29 05:00:00 17.6 6 Norte 9 Noroeste 0 930.1 -- 65
2020-07-29 04:00:00 19.1 2 Sudeste 13 Noroeste 0 930.4 -- 64
2020-07-29 03:00:00 20 7 Noroeste 14 Noroeste 0 930.5 -- 63
2020-07-29 02:00:00 20.8 6 Noroeste 14 Noroeste 0 930.6 -- 59
2020-07-29 01:00:00 21.5 6 Noroeste 13 Noroeste 0 930.8 -- 53
2020-07-29 00:00:00 23 6 Noroeste 12 Este 0 930.8 -- 39
2020-07-28 23:00:00 24.5 2 Este 12 Este 0 930.7 -- 33
2020-07-28 22:00:00 26 9 Este 21 Este 0 930.3 -- 32
2020-07-28 21:00:00 27.9 10 Este 23 Sudeste 0 930 -- 28
2020-07-28 20:00:00 30.4 14 Este 31 Sudeste 0 929.5 -- 27
2020-07-28 19:00:00 32.3 16 Sudeste 32 Sudeste 0 929.2 -- 25
2020-07-28 18:00:00 33.5 19 Sudeste 35 Sudeste 0 929.4 -- 24
2020-07-28 17:00:00 35 19 Sudeste 31 Sudeste 0 929.4 -- 22
2020-07-28 16:00:00 35.2 15 Sudeste 29 Sudeste 0 929.7 -- 18
2020-07-28 15:00:00 35 18 Sudeste 34 Sur 0 930.1 -- 15
2020-07-28 14:00:00 35.3 16 Sudeste 29 Sudeste 0 930.3 -- 14
2020-07-28 13:00:00 34.4 10 Sudeste 27 Sur 0 930.6 -- 17
2020-07-28 12:00:00 32.6 10 Sudeste 18 Sudeste 0 931.1 -- 21
2020-07-28 11:00:00 31.2 4 Sudeste 8 Sudeste 0 931 -- 23
2020-07-28 10:00:00 27.3 0 Calma 8 Noroeste 0 931 -- 32
2020-07-28 09:00:00 22.5 2 Norte 8 Noroeste 0 930.9 -- 49
2020-07-28 08:00:00 18.2 5 Norte 8 Noroeste 0 930.8 -- 62
2020-07-28 07:00:00 18.3 7 Noroeste 12 Noroeste 0 930.7 -- 60
2020-07-28 06:00:00 18.7 9 Noroeste 12 Noroeste 0 930.7 -- 62
2020-07-28 05:00:00 19.4 9 Noroeste 12 Noroeste 0 931.1 -- 63
2020-07-28 04:00:00 20.3 6 Noroeste 12 Norte 0 931.2 -- 62
2020-07-28 03:00:00 21.2 9 Noroeste 12 Noroeste 0 931.3 -- 59
2020-07-28 02:00:00 21.3 8 Noroeste 11 Noroeste 0 931.7 -- 58
2020-07-28 01:00:00 22.3 10 Noroeste 12 Noroeste 0 932.1 -- 54
2020-07-28 00:00:00 24.3 7 Noroeste 12 Noroeste 0 932.2 -- 48
2020-07-27 23:00:00 26.6 4 Norte 14 Sudeste 0 931.7 -- 43
2020-07-27 22:00:00 28 4 Nordeste 18 Sudeste 0 930.9 -- 40
2020-07-27 21:00:00 29.9 9 Sudeste 23 Sudeste 0 930.4 -- 35
2020-07-27 20:00:00 32.8 14 Sudeste 31 Sudeste 0 930.4 -- 31
2020-07-27 19:00:00 34.9 19 Sudeste 34 Sudeste 0 929.8 -- 27
2020-07-27 18:00:00 37.5 19 Sudeste 30 Sudeste 0 930 -- 23
2020-07-27 17:00:00 37.9 13 Sudeste 27 Sudeste 0 930.4 -- 17
2020-07-27 16:00:00 38.1 12 Sur 28 Sudeste 0 930.9 -- 14
2020-07-27 15:00:00 36.6 13 Sudeste 23 Sur 0 931.7 -- 17
2020-07-27 14:00:00 35 6 Sudeste 23 Sudeste 0 932.3 -- 19
2020-07-27 13:00:00 34.3 10 Sur 21 Sur 0 932.7 -- 17
2020-07-27 12:00:00 31.9 7 Sudeste 15 Sudeste 0 933.1 -- 25
2020-07-27 09:00:00 22.4 7 Noroeste 18 Noroeste 0 933.1 1 48
2020-07-27 08:00:00 19 9 Noroeste 15 Noroeste 0 932.6 0.6 59
2020-07-27 07:00:00 17.7 11 Noroeste 14 Noroeste 0 932.3 0.2 69
2020-07-27 06:00:00 18.1 9 Norte 15 Noroeste 0 932.1 -0.3 70
2020-07-27 05:00:00 18 9 Noroeste 13 Oeste 0 932 -0.7 73
2020-07-27 04:00:00 18.4 9 Noroeste 13 Noroeste 0 932.1 -0.6 73
2020-07-27 03:00:00 18.8 6 Norte 9 Norte 0 932.4 0 70
2020-07-27 02:00:00 19.7 6 Noroeste 9 Noroeste 0 932.7 0.6 68
2020-07-27 01:00:00 20.7 7 Noroeste 10 Noroeste 0 932.7 1.6 68
2020-07-27 00:00:00 21.9 5 Noroeste 9 Noroeste 0 932.4 2.1 66
2020-07-26 23:00:00 24.2 5 Nordeste 13 Este 0 932.1 2.7 52
2020-07-26 22:00:00 25.4 9 Sudeste 19 Sudeste 0 931.1 1.9 54
2020-07-26 21:00:00 27.4 14 Sudeste 30 Sudeste 0 930.3 1 53
2020-07-26 20:00:00 30.6 19 Sudeste 34 Sudeste 0 929.4 0 44
2020-07-26 19:00:00 33.1 18 Sudeste 37 Sudeste 0 929.2 -0.8 37
2020-07-26 18:00:00 34.5 24 Sudeste 36 Sudeste 0 929.3 -1.1 32
2020-07-26 17:00:00 37.7 10 Sudoeste 24 Sur 0 929.4 -1.5 14
2020-07-26 16:00:00 37 6 Sur 20 Sudeste 0 930 -1.2 16
2020-07-26 15:00:00 35.7 8 Sur 20 Sur 0 930.4 -0.8 21
2020-07-26 14:00:00 34.3 10 Sudeste 22 Sudeste 0 930.9 -0.1 25
2020-07-26 13:00:00 32.3 9 Sudeste 21 Sudeste 0 931.2 0.2 29
2020-07-26 12:00:00 30.4 4 Sudeste 12 Sur 0 931.2 0.5 34
2020-07-26 11:00:00 28.4 3 Sur 9 Sudeste 0 931 0.8 42
2020-07-26 10:00:00 25.4 3 Oeste 8 Noroeste 0 931 -- 55
2020-07-26 09:00:00 21.3 4 Norte 9 Norte 0 930.7 -- 67
2020-07-26 08:00:00 17.3 4 Norte 5 Norte 0 930.2 -- 84
2020-07-26 07:00:00 16.8 0 Calma 9 Noroeste 0 929.9 -- 82
2020-07-26 06:00:00 17.5 3 Noroeste 11 Norte 0 929.5 -- 80
2020-07-26 05:00:00 18.5 5 Norte 13 Noroeste 0 929.3 -- 76
2020-07-26 04:00:00 19.1 9 Noroeste 16 Noroeste 0 929.3 -- 74
2020-07-26 03:00:00 19.5 11 Noroeste 17 Noroeste 0 929.5 -- 72
2020-07-26 02:00:00 19.9 9 Noroeste 17 Noroeste 0 929.8 -- 70
2020-07-26 01:00:00 20.5 10 Noroeste 15 Noroeste 0 929.9 -- 67
2020-07-26 00:00:00 21.4 10 Noroeste 14 Noroeste 0 929.9 -- 63
2020-07-25 23:00:00 23.4 4 Oeste 12 Sur 0 929.8 -- 59
2020-07-25 22:00:00 25.2 8 Sur 15 Sudeste 0 929 -- 57
2020-07-25 21:00:00 27.6 10 Sudeste 36 Sudeste 0 928.5 -- 54
2020-07-25 20:00:00 30 20 Sudeste 36 Sudeste 0 927.9 -- 47
2020-07-25 19:00:00 32.4 22 Sudeste 37 Sudeste 0 927.7 -- 38
2020-07-25 18:00:00 34.2 19 Sudeste 33 Sudeste 0 928 -- 29
2020-07-25 17:00:00 34.3 11 Sudeste 22 Sudeste 0 928.5 -- 25
2020-07-25 16:00:00 33.8 8 Sur 22 Sur 0 929.4 -- 25
2020-07-25 15:00:00 32.3 8 Sudeste 20 Sudeste 0 929.9 -- 33
2020-07-25 14:00:00 30.5 11 Sudeste 19 Sur 0 930.3 -- 37
2020-07-25 13:00:00 29.2 13 Sur 22 Sur 0 930.8 -- 39
2020-07-25 12:00:00 28 9 Sudeste 23 Sudeste 0 931 -- 33
2020-07-25 11:00:00 26.7 13 Sudeste 24 Sudeste 0 931.1 -- 31
2020-07-25 10:00:00 24.7 3 Nordeste 6 Norte 0 931.1 -- 29
2020-07-25 09:00:00 20.8 4 Noroeste 8 Noroeste 0 931 -- 48
2020-07-25 08:00:00 17.5 5 Noroeste 11 Oeste 0 930.5 -- 57
2020-07-25 07:00:00 16.9 2 Noroeste 5 Nordeste 0 930.1 -- 57
2020-07-25 06:00:00 17.2 3 Sur 10 Noroeste 0 929.8 -- 58
2020-07-25 05:00:00 18.4 10 Noroeste 14 Noroeste 0 929.8 -- 51
2020-07-25 04:00:00 18.8 8 Noroeste 14 Noroeste 0 929.8 -- 51
2020-07-25 03:00:00 19 8 Noroeste 13 Noroeste 0 930 -- 53
2020-07-25 02:00:00 19.4 8 Noroeste 13 Noroeste 0 930.3 -- 51
2020-07-25 01:00:00 20.6 6 Noroeste 10 Este 0 930.5 -- 61
2020-07-25 00:00:00 21.5 3 Este 10 Nordeste 0 930.3 -- 63
2020-07-24 23:00:00 23 5 Sudeste 12 Este 0 929.9 -- 53
2020-07-24 22:00:00 24.4 8 Este 14 Este 0 929.3 -- 50
2020-07-24 21:00:00 26.8 10 Este 18 Este 0 928.8 -- 37
2020-07-24 20:00:00 28.6 12 Este 26 Sudeste 0 928.6 -- 32
2020-07-24 19:00:00 28.8 19 Este 38 Sudeste 0 928.2 -- 35
2020-07-24 18:00:00 31 22 Sudeste 33 Sudeste 0 927.7 -- 31
2020-07-24 17:00:00 34 11 Sur 22 Sudeste 0 927.7 -- 20
2020-07-24 16:00:00 33.9 13 Sudeste 25 Sudeste 0 928.6 -- 20
2020-07-24 15:00:00 33.3 9 Sur 22 Sudeste 0 929.2 -- 19
2020-07-24 14:00:00 32.5 12 Sudeste 24 Sudeste 0 929.8 -- 19
2020-07-24 13:00:00 31.1 14 Sur 23 Sudeste 0 930 -- 20
2020-07-24 12:00:00 30 11 Sudeste 21 Sudeste 0 930.1 -- 23
2020-07-24 11:00:00 28.6 4 Sudeste 11 Sudeste 0 930.1 -- 20
2020-07-24 10:00:00 24.8 3 Oeste 9 Norte 0 930 -- 30
2020-07-24 09:00:00 22 6 Norte 12 Noroeste 0 929.8 -- 30
2020-07-24 08:00:00 17.7 6 Noroeste 13 Noroeste 0 929.2 -- 44
2020-07-24 07:00:00 16.5 9 Noroeste 12 Norte 0 928.8 -- 46
2020-07-24 06:00:00 17.4 7 Norte 14 Noroeste 0 928.8 -- 44
2020-07-24 05:00:00 17.3 8 Noroeste 12 Norte 0 928.9 -- 52
2020-07-24 04:00:00 18.5 6 Noroeste 19 Noroeste 0 929.5 -- 52
2020-07-24 03:00:00 18.9 9 Noroeste 16 Noroeste 0 929.5 -- 55
2020-07-24 02:00:00 19.5 9 Noroeste 14 Noroeste 0 930.1 -- 52
2020-07-24 01:00:00 19.8 9 Noroeste 14 Noroeste 0 930.4 -- 48
2020-07-24 00:00:00 20.5 6 Noroeste 8 Noroeste 0 930.5 -- 44
2020-07-23 23:00:00 23.4 5 Sudeste 8 Sudeste 0 930.4 -- 33
2020-07-23 22:00:00 25.2 2 Sudeste 16 Sudeste 0 929.6 -- 29
2020-07-23 21:00:00 27.8 12 Sudeste 28 Sudeste 0 929 -- 24
2020-07-23 20:00:00 30.3 17 Sudeste 33 Sudeste 0 928.5 -- 22
2020-07-23 19:00:00 32.1 19 Sudeste 33 Sudeste 0 928.5 -- 20
2020-07-23 18:00:00 34.9 4 Sur 19 Sur 0 928.9 -- 14
2020-07-23 17:00:00 34.4 12 Sur 19 Sur 0 929.5 -- 14
2020-07-23 16:00:00 33.8 9 Sudeste 19 Sur 0 929.9 -- 14
2020-07-23 15:00:00 33 5 Sudoeste 18 Sur 0 930.5 -- 15
2020-07-23 14:00:00 31.5 7 Sudoeste 18 Sudeste 0 931.4 -- 20
2020-07-23 13:00:00 30.5 8 Sur 18 Sur 0 931.7 -- 22
2020-07-23 12:00:00 28.6 6 Sur 19 Sur 0 931.9 -- 26
2020-07-23 11:00:00 27.4 7 Sur 12 Sur 0 931.9 -- 27
2020-07-23 10:00:00 24.5 3 Oeste 9 Noroeste 0 931.9 -- 37
2020-07-23 09:00:00 19.8 7 Noroeste 11 Noroeste 0 932 -- 47
2020-07-23 08:00:00 14.5 6 Noroeste 10 Noroeste 0 931.8 -- 68
2020-07-23 07:00:00 14.2 9 Noroeste 13 Noroeste 0 931.8 -- 62
2020-07-23 06:00:00 14.5 6 Noroeste 13 Noroeste 0 931.9 -- 58
2020-07-23 05:00:00 14.6 7 Noroeste 12 Noroeste 0 932 -- 59
2020-07-23 04:00:00 15 9 Noroeste 13 Noroeste 0 932.3 -- 58
2020-07-23 03:00:00 15.6 6 Noroeste 10 Noroeste 0 932.8 -- 57
2020-07-23 02:00:00 15.8 8 Noroeste 12 Noroeste 0 933.2 -- 59
2020-07-23 01:00:00 16.9 5 Norte 9 Noroeste 0 933.3 -- 55
2020-07-23 00:00:00 17.7 8 Noroeste 11 Noroeste 0 933.2 -- 50
2020-07-22 23:00:00 18.6 3 Noroeste 9 Oeste 0 933 -- 46
2020-07-22 22:00:00 22.1 4 Nordeste 11 Nordeste 0 932.7 -- 27
2020-07-22 21:00:00 25.1 8 Nordeste 19 Este 0 932.6 -- 23
2020-07-22 20:00:00 26.9 11 Este 25 Este 0 932.4 -- 19
2020-07-22 19:00:00 27.1 14 Sudeste 27 Este 0 932.6 -- 23
2020-07-22 18:00:00 26.9 16 Sudeste 27 Sudeste 0 933 -- 26
2020-07-22 17:00:00 27.8 16 Este 31 Sudeste 0 933.3 -- 27
2020-07-22 16:00:00 27.3 16 Sudeste 31 Sudeste 0 933.3 -- 34
2020-07-22 15:00:00 26 12 Este 32 Este 0 933.5 -- 44
2020-07-22 14:00:00 24.2 22 Este 36 Este 0.6 933.7 -- 37
2020-07-22 13:00:00 26.9 15 Este 28 Este 0 933.1 -- 31
2020-07-22 12:00:00 23 10 Este 23 Este 0.4 934 -- 47
2020-07-22 11:00:00 21.9 6 Nordeste 17 Nordeste 0.2 934.5 -- 62
2020-07-22 10:00:00 20.4 7 Noroeste 14 Norte 0 934.4 -- 71
2020-07-22 09:00:00 18.3 3 Sur 14 Oeste 0 934.2 -- 77
2020-07-22 08:00:00 16.8 9 Noroeste 12 Noroeste 0 933.6 -- 74
2020-07-22 07:00:00 16.2 6 Sur 11 Noroeste 0 933.4 -- 77
2020-07-22 06:00:00 16.8 6 Noroeste 13 Noroeste 0 933.1 -- 76
2020-07-22 05:00:00 16.3 8 Noroeste 12 Noroeste 0 932.9 -- 74
2020-07-22 04:00:00 16.2 8 Noroeste 11 Noroeste 0 933.1 -- 66
2020-07-22 03:00:00 17.4 3 Sudeste 13 Noroeste 0 933.8 -- 66
2020-07-22 02:00:00 17.9 4 Noroeste 9 Noroeste 0 933.8 -- 55
2020-07-22 01:00:00 19.4 3 Sur 6 Sudeste 0 934.2 -- 49
2020-07-22 00:00:00 21.7 2 Sudeste 21 Este 0 933.7 -- 32
2020-07-21 23:00:00 22.8 13 Sudeste 28 Este 0 933.4 -- 32
2020-07-21 22:00:00 23.7 7 Este 23 Este 0 933.2 -- 32
2020-07-21 21:00:00 25.6 14 Este 23 Este 0 933.1 -- 25
2020-07-21 20:00:00 27.5 17 Sudeste 31 Sudeste 0 932.9 -- 32
2020-07-21 19:00:00 29 19 Sudeste 33 Sudeste 0 932.3 -- 32
2020-07-21 18:00:00 30.4 16 Sudeste 45 Este 0 932.3 -- 28
2020-07-21 17:00:00 31.3 22 Sudeste 33 Sudeste 0 932.5 -- 26
2020-07-21 16:00:00 31.4 22 Sudeste 36 Sudeste 0 933.5 -- 27
2020-07-21 15:00:00 31.2 18 Sudeste 35 Sudeste 0 933.5 -- 31
2020-07-21 14:00:00 31.1 19 Sudeste 33 Sudeste 0 933.5 -- 29
2020-07-21 13:00:00 30.3 13 Sudeste 26 Sudeste 0 933.7 -- 29
2020-07-21 12:00:00 28.8 17 Sudeste 27 Sudeste 0 933.7 -- 31
2020-07-21 11:00:00 27.2 9 Sudeste 13 Sur 0 933.7 -- 32
2020-07-21 10:00:00 24.2 4 Norte 10 Norte 0 933.6 -- 40
2020-07-21 09:00:00 20.4 6 Noroeste 12 Noroeste 0 933.6 -- 64
2020-07-21 08:00:00 15.9 6 Noroeste 11 Norte 0 933.5 -- 88
2020-07-21 07:00:00 14.6 6 Norte 11 Noroeste 0 933.4 -- 87
2020-07-21 06:00:00 15.2 6 Norte 8 Norte 0 933 -- 85
2020-07-21 05:00:00 15.5 7 Norte 9 Norte 0 932.9 -- 84
2020-07-21 04:00:00 17.2 5 Oeste 9 Sudoeste 0 933.2 -- 81
2020-07-21 03:00:00 17.9 7 Sudoeste 9 Oeste 0 933.4 -- 78
2020-07-21 02:00:00 18.4 7 Oeste 10 Oeste 0 933.5 -- 76
2020-07-21 01:00:00 19.2 6 Oeste 9 Oeste 0 933.6 -- 72
2020-07-21 00:00:00 20.5 9 Este 18 Este 0 933.2 -- 60
2020-07-20 23:00:00 21.3 9 Este 16 Este 0 933 -- 59
2020-07-20 22:00:00 22.6 8 Este 20 Este 0 932.5 -- 69
2020-07-20 21:00:00 24.5 17 Sudeste 33 Sudeste 0 931.7 -- 66
2020-07-20 20:00:00 27.1 18 Sudeste 40 Sudeste 0 930.9 -- 57
2020-07-20 19:00:00 30.5 20 Sudeste 33 Sudeste 0 930.3 -- 47
2020-07-20 18:00:00 32.4 10 Este 26 Sudeste 0 930.4 -- 31
2020-07-20 17:00:00 33.1 12 Sudeste 22 Sudeste 0 930.9 -- 26
2020-07-20 16:00:00 29.9 12 Sudeste 19 Este 0 931.2 -- 39
2020-07-20 15:00:00 28.5 14 Sudeste 23 Sudeste 0 931.5 -- 49
2020-07-20 14:00:00 30 13 Sudeste 22 Sur 0 931.6 -- 39
2020-07-20 13:00:00 29.1 9 Sudeste 19 Sudeste 0 931.9 -- 41
2020-07-20 12:00:00 26.4 6 Este 12 Sudeste 0 931.9 -- 48
2020-07-20 11:00:00 25 6 Sudeste 11 Sudeste 0 931.8 -- 55
2020-07-20 10:00:00 22.1 5 Noroeste 12 Norte 0 931.7 -- 71
2020-07-20 09:00:00 20.4 3 Noroeste 6 Norte 0 931.3 -- 80
2020-07-20 08:00:00 19.8 4 Norte 5 Norte 0 930.9 -- 82
2020-07-20 07:00:00 20.1 0 Calma 7 Sur 0 930.8 -- 81
2020-07-20 06:00:00 20.3 3 Sudoeste 5 Sur 0 930.4 -- 82
2020-07-20 05:00:00 20.3 0 Calma 5 Norte 0 930.1 -- 81
2020-07-20 04:00:00 20.8 2 Oeste 9 Noroeste 0 930.2 -- 78
2020-07-20 03:00:00 20.9 5 Noroeste 21 Noroeste 0 930.4 -- 78
2020-07-20 02:00:00 21 14 Noroeste 23 Noroeste 0 930.9 -- 78
2020-07-20 01:00:00 21.2 8 Noroeste 19 Noroeste 0 930.9 -- 77
2020-07-20 00:00:00 22.1 10 Noroeste 17 Noroeste 0 930.8 -- 70
2020-07-19 23:00:00 23.1 3 Sur 18 Sudeste 0 930.8 -- 63
2020-07-19 22:00:00 23.8 9 Sudeste 21 Sudeste 0 930.7 -- 62
2020-07-19 21:00:00 25.3 16 Sudeste 28 Sur 0 930.6 -- 56
2020-07-19 20:00:00 27.6 17 Sudeste 37 Sudeste 0 929 -- 47
2020-07-19 19:00:00 30.3 21 Sudeste 41 Sudeste 0 928 -- 44
2020-07-19 18:00:00 36.3 8 Sudoeste 27 Sudoeste 0 928 -- 14
2020-07-19 17:00:00 35.7 13 Sudoeste 26 Sur 0 928.6 -- 15
2020-07-19 16:00:00 34.4 11 Sur 21 Sur 0 929.1 -- 24
2020-07-19 15:00:00 32.5 9 Sudeste 18 Sur 0 930.1 -- 30
2020-07-19 14:00:00 30.8 7 Sudeste 18 Sur 0 930.4 -- 35
2020-07-19 13:00:00 29.1 5 Sudeste 14 Sur 0 930.8 -- 41
2020-07-19 12:00:00 27.8 6 Sur 17 Sur 0 931 0.2 47
2020-07-19 11:00:00 26 6 Sur 14 Sudeste 0 931 0.2 49
2020-07-19 10:00:00 24.6 3 Sudeste 6 Sur 0 930.9 0.1 51
2020-07-19 09:00:00 20.9 5 Norte 8 Noroeste 0 930.8 0.2 71
2020-07-19 08:00:00 16.7 4 Noroeste 7 Noroeste 0 930.8 -- 90
2020-07-19 07:00:00 16.5 6 Noroeste 10 Noroeste 0 930.8 -- 89
2020-07-19 06:00:00 16.8 8 Noroeste 10 Noroeste 0 930.6 -- 90
2020-07-19 05:00:00 17.5 8 Norte 13 Noroeste 0 930.7 -- 89
2020-07-19 04:00:00 17.6 7 Noroeste 12 Noroeste 0 931 -- 90
2020-07-19 03:00:00 18.3 7 Noroeste 12 Noroeste 0 931.4 -- 88
2020-07-19 02:00:00 18.8 6 Noroeste 9 Noroeste 0 931.6 -- 85
2020-07-19 01:00:00 19.5 6 Noroeste 9 Noroeste 0 931.4 -- 83
2020-07-19 00:00:00 20.7 6 Noroeste 7 Noroeste 0 931.2 -- 79
2020-07-18 23:00:00 22.2 3 Este 11 Este 0 931 -- 71
2020-07-18 22:00:00 23.2 9 Este 24 Sudeste 0 930.1 -- 67
2020-07-18 21:00:00 25.5 16 Sudeste 28 Sudeste 0 929.2 -- 59
2020-07-18 20:00:00 28.5 18 Sudeste 32 Sudeste 0 928.5 -- 50
2020-07-18 19:00:00 32.2 12 Sur 21 Sur 0 928 -- 27
2020-07-18 18:00:00 32.4 7 Sur 16 Sur 0 928.4 -- 28
2020-07-18 17:00:00 31.4 8 Sur 24 Sur 0 929 -- 30
2020-07-18 16:00:00 29.8 6 Sudeste 16 Sudeste 0 929.6 -- 37
2020-07-18 15:00:00 29 6 Sur 22 Sur 0 930.1 -- 43
2020-07-18 14:00:00 27.1 7 Sudeste 19 Sudeste 0 930.7 -- 50
2020-07-18 13:00:00 25.5 9 Este 19 Sudeste 0 931.1 -- 57
2020-07-18 12:00:00 24.2 10 Sur 18 Sudeste 0 931.5 -- 60
2020-07-18 11:00:00 22.5 9 Sudeste 19 Sudeste 0 931.6 -- 67
2020-07-18 10:00:00 21.5 5 Sudeste 10 Este 0 931.8 -- 67
2020-07-18 09:00:00 19.1 2 Norte 6 Norte 0 931.7 -- 81
2020-07-18 08:00:00 16.3 3 Norte 6 Este 0 931.6 -- 92
2020-07-18 07:00:00 16.1 3 Sudeste 12 Sur 0 931.3 -- 90
2020-07-18 06:00:00 16 5 Noroeste 11 Oeste 0 930.9 -- 90
2020-07-18 05:00:00 16.2 8 Noroeste 14 Noroeste 0 930.8 -- 90
2020-07-18 04:00:00 16.3 9 Noroeste 13 Noroeste 0 931.2 -- 90
2020-07-18 03:00:00 16.3 7 Norte 12 Norte 0 931.4 -- 90
2020-07-18 02:00:00 17.4 4 Norte 6 Oeste 0 931.5 -- 87
2020-07-18 01:00:00 18.2 3 Oeste 10 Noroeste 0 931.5 -- 85
2020-07-18 00:00:00 19.2 5 Oeste 14 Este 0 931.4 -- 79
2020-07-17 23:00:00 20.3 9 Este 16 Este 0 931.2 -- 72
2020-07-17 22:00:00 21.2 6 Sudeste 16 Este 0 930.6 -- 71
2020-07-17 21:00:00 23 6 Sudeste 23 Sudeste 0 930 -- 69
2020-07-17 20:00:00 24 13 Sudeste 21 Sudeste 0 929.5 -- 70
2020-07-17 19:00:00 23 15 Sudeste 24 Sudeste 0.2 929.1 -- 78
2020-07-17 18:00:00 25.2 15 Este 33 Este 0 929.2 -- 63
2020-07-17 17:00:00 26.7 17 Este 30 Sudeste 0 929.4 -- 54
2020-07-17 16:00:00 31 9 Sur 22 Sur 0 929.4 -- 35
2020-07-17 15:00:00 29.8 6 Noroeste 19 Sur 0 930.1 -- 38
2020-07-17 14:00:00 28.3 8 Sur 23 Sur 0 930.6 -- 42
2020-07-17 13:00:00 27.4 12 Sur 24 Sudeste 0 931 -- 44
2020-07-17 12:00:00 25.9 10 Sudeste 21 Sudeste 0 931.2 -- 47
2020-07-17 11:00:00 24.2 8 Sudeste 16 Sudeste 0 931.4 -- 53
2020-07-17 10:00:00 23.1 3 Este 8 Norte 0 931.9 -- 57
2020-07-17 09:00:00 19.5 6 Norte 9 Norte 0 931.8 -- 82
2020-07-17 08:00:00 16.8 5 Norte 9 Norte 0 931.6 -- 92
2020-07-17 07:00:00 16.5 7 Noroeste 9 Noroeste 0 931.5 -- 91
2020-07-17 06:00:00 16.9 6 Noroeste 11 Noroeste 0 931.6 -- 90
2020-07-17 05:00:00 17.2 9 Noroeste 10 Noroeste 0 931.8 -- 89
2020-07-17 04:00:00 17.5 6 Noroeste 10 Noroeste 0 931.9 -- 88
2020-07-17 03:00:00 18 7 Noroeste 10 Norte 0 932.1 -- 87
2020-07-17 02:00:00 18.6 7 Noroeste 13 Noroeste 0 932.5 -- 84
2020-07-17 01:00:00 19.6 5 Oeste 10 Sur 0 932.6 -- 79
2020-07-17 00:00:00 20.3 7 Sur 16 Sudeste 0 932.6 -- 76
2020-07-16 23:00:00 21.4 9 Sudeste 17 Este 0 932 -- 72
2020-07-16 22:00:00 23.2 8 Sudeste 23 Sudeste 0 931.6 -- 66
2020-07-16 21:00:00 25.6 15 Sudeste 27 Sudeste 0 931.3 -- 58
2020-07-16 20:00:00 27.6 18 Sudeste 32 Sudeste 0 931.1 -- 50
2020-07-16 19:00:00 30.1 16 Sudeste 27 Sudeste 0 930.9 -- 40
2020-07-16 18:00:00 31.3 5 Sur 17 Sur 0 931 -- 29
2020-07-16 17:00:00 30.9 6 Sudoeste 15 Oeste 0 931.5 -- 29
2020-07-16 16:00:00 30.3 5 Sur 15 Sudoeste 0 932.2 -- 32
2020-07-16 15:00:00 28.7 6 Sudoeste 15 Sur 0 932.7 -- 34
2020-07-16 14:00:00 27.3 7 Sudeste 18 Sur 0 933.5 -- 39
2020-07-16 13:00:00 26.2 10 Sudeste 18 Sur 0 934.1 -- 46
2020-07-16 12:00:00 24.6 10 Sur 20 Sudeste 0 934.2 -- 53
2020-07-16 11:00:00 23.7 9 Sudeste 17 Sudeste 0 934 -- 57
2020-07-16 10:00:00 22.1 5 Sur 9 Sudeste 0 933.9 -- 59
2020-07-16 09:00:00 19.2 5 Noroeste 11 Noroeste 0 933.6 -- 69
2020-07-16 08:00:00 16 6 Noroeste 11 Noroeste 0 933.2 -- 84
2020-07-16 07:00:00 15.8 6 Noroeste 9 Noroeste 0 933.1 -- 88
2020-07-16 06:00:00 16.1 7 Noroeste 12 Noroeste 0 932.9 -- 88
2020-07-16 05:00:00 16.5 9 Noroeste 12 Noroeste 0 933 -- 87
2020-07-16 04:00:00 17.1 9 Noroeste 12 Noroeste 0 933.2 -- 84
2020-07-16 03:00:00 17.9 9 Noroeste 13 Noroeste 0 933.3 -- 81
2020-07-16 02:00:00 19.4 5 Noroeste 8 Sudeste 0 933.5 -- 76
2020-07-16 01:00:00 20.4 5 Sudeste 12 Sudeste 0 933.5 -- 71
2020-07-16 00:00:00 20.5 5 Este 17 Este 0 933.1 -- 73
2020-07-15 23:00:00 21.1 9 Este 18 Este 0 932.3 -- 72
2020-07-15 22:00:00 22.8 9 Sudeste 24 Sudeste 0 931.4 -- 71
2020-07-15 21:00:00 25.2 14 Sudeste 26 Sudeste 0 930.7 -- 61
2020-07-15 20:00:00 29 8 Sur 15 Sur 0 930.5 -- 35
2020-07-15 19:00:00 29.3 8 Sudeste 14 Sudeste 0 930.5 -- 32
2020-07-15 18:00:00 29.1 8 Sudeste 17 Sur 0 930.9 -- 31
2020-07-15 17:00:00 28.7 7 Sur 18 Sur 0 931.3 -- 37
2020-07-15 16:00:00 27.6 6 Sudeste 15 Sudoeste 0 931.5 -- 40
2020-07-15 15:00:00 26.7 6 Sudoeste 18 Sur 0 931.9 -- 45
2020-07-15 14:00:00 25.7 8 Sur 17 Sudeste 0 932.2 -- 49
2020-07-15 13:00:00 24.7 9 Sur 16 Sur 0 932.6 -- 55
2020-07-15 12:00:00 23.6 4 Nordeste 13 Sudeste 0 932.6 -- 58
2020-07-15 11:00:00 22.3 7 Sur 14 Sur 0 932.3 -- 62
2020-07-15 10:00:00 20 4 Noroeste 12 Noroeste 0 932.1 -- 70
2020-07-15 09:00:00 17.2 7 Noroeste 14 Noroeste 0 931.7 -- 85
2020-07-15 08:00:00 14.3 10 Noroeste 14 Noroeste 0 931.4 -- 92
2020-07-15 07:00:00 13.2 10 Noroeste 14 Noroeste 0 931.1 -- 92
2020-07-15 06:00:00 13.1 6 Norte 12 Noroeste 0 931 -- 92
2020-07-15 05:00:00 13.4 8 Noroeste 10 Noroeste 0.2 931 -- 93
2020-07-15 04:00:00 14.1 7 Noroeste 9 Noroeste 0 930.8 -- 92
2020-07-15 03:00:00 14.7 4 Norte 10 Noroeste 0 930.9 -- 92
2020-07-15 02:00:00 15.3 9 Noroeste 11 Noroeste 0 930.9 -- 91
2020-07-15 01:00:00 15.7 6 Norte 10 Noroeste 0 930.8 -- 92
2020-07-15 00:00:00 16.2 7 Noroeste 12 Noroeste 0 930.9 -- 92